createdAt,value
2023-03-04T00:01:36.663Z,67.30
2023-03-04T00:04:03.905Z,76.43
2023-03-04T00:06:31.144Z,69.20
2023-03-04T00:08:58.581Z,70.18
2023-03-04T00:11:25.820Z,77.80
2023-03-04T00:13:54.365Z,81.65
2023-03-04T00:16:21.518Z,87.85
2023-03-04T00:18:48.513Z,83.07
2023-03-04T00:21:15.541Z,74.78
2023-03-04T00:23:43.894Z,65.90
2023-03-04T00:26:10.900Z,67.82
2023-03-04T00:28:38.830Z,63.33
2023-03-04T00:31:07.422Z,63.25
2023-03-04T00:33:34.464Z,57.97
2023-03-04T00:36:01.855Z,51.58
2023-03-04T00:38:29.209Z,47.45
2023-03-04T00:40:56.433Z,55.92
2023-03-04T00:43:23.411Z,52.90
2023-03-04T00:45:50.545Z,45.47
2023-03-04T00:48:19.422Z,44.65
2023-03-04T00:50:46.429Z,42.08
2023-03-04T00:53:13.342Z,44.00
2023-03-04T00:55:40.271Z,42.80
2023-03-04T00:58:07.240Z,42.00
2023-03-04T01:00:34.260Z,43.40
2023-03-04T01:03:01.408Z,45.65
2023-03-04T01:05:29.926Z,47.72
2023-03-04T01:07:57.022Z,46.13
2023-03-04T01:10:23.979Z,47.80
2023-03-04T01:12:51.183Z,48.95
2023-03-04T01:15:18.221Z,44.17
2023-03-04T01:17:46.420Z,55.47
2023-03-04T01:20:13.620Z,67.47
2023-03-04T01:22:41.987Z,61.95
2023-03-04T01:25:09.258Z,71.30
2023-03-04T01:27:36.206Z,59.30
2023-03-04T01:30:03.522Z,56.33
2023-03-04T01:32:30.547Z,61.50
2023-03-04T01:34:57.483Z,62.47
2023-03-04T01:37:24.429Z,63.45
2023-03-04T01:39:53.019Z,62.63
2023-03-04T01:42:21.259Z,54.22
2023-03-04T01:44:51.621Z,54.87
2023-03-04T01:47:19.131Z,57.03
2023-03-04T01:49:47.009Z,54.72
2023-03-04T01:52:14.409Z,53.40
2023-03-04T01:54:41.397Z,59.22
2023-03-04T01:57:15.670Z,57.97
2023-03-04T01:59:42.705Z,56.20
2023-03-04T02:02:09.879Z,53.13
2023-03-04T02:04:37.187Z,55.80
2023-03-04T02:07:04.639Z,53.83
2023-03-04T02:09:32.238Z,55.33
2023-03-04T02:11:59.608Z,54.58
2023-03-04T02:14:28.081Z,50.42
2023-03-04T02:16:55.088Z,55.28
2023-03-04T02:19:29.557Z,49.10
2023-03-04T02:21:56.610Z,50.08
2023-03-04T02:24:27.319Z,49.85
2023-03-04T02:26:55.930Z,48.90
2023-03-04T02:29:23.295Z,49.50
2023-03-04T02:31:51.443Z,49.13
2023-03-04T02:34:19.446Z,48.87
2023-03-04T02:36:46.962Z,49.03
2023-03-04T02:39:15.575Z,49.35
2023-03-04T02:41:44.511Z,44.92
2023-03-04T02:44:17.776Z,48.85
2023-03-04T02:46:44.859Z,46.53
2023-03-04T02:49:12.011Z,47.83
2023-03-04T02:51:39.238Z,50.45
2023-03-04T02:54:14.704Z,43.47
2023-03-04T02:56:44.725Z,48.25
2023-03-04T02:59:12.433Z,45.50
2023-03-04T03:01:41.248Z,44.58
2023-03-04T03:04:08.512Z,46.53
2023-03-04T03:06:35.478Z,50.85
2023-03-04T03:09:02.894Z,48.10
2023-03-04T03:11:29.944Z,49.67
2023-03-04T03:13:57.248Z,52.55
2023-03-04T03:16:24.499Z,49.38
2023-03-04T03:18:52.967Z,44.70
2023-03-04T03:21:19.894Z,48.38
2023-03-04T03:23:46.808Z,47.20
2023-03-04T03:26:14.077Z,50.95
2023-03-04T03:28:40.993Z,51.25
2023-03-04T03:31:08.053Z,49.42
2023-03-04T03:33:35.543Z,52.95
2023-03-04T03:36:04.224Z,48.83
2023-03-04T03:38:31.466Z,49.60
2023-03-04T03:40:58.404Z,45.90
2023-03-04T03:43:25.481Z,48.15
2023-03-04T03:45:52.569Z,48.67
2023-03-04T03:48:19.692Z,45.70
2023-03-04T03:50:46.670Z,46.00
2023-03-04T03:53:15.755Z,42.60
2023-03-04T03:55:43.560Z,45.63
2023-03-04T03:58:10.505Z,42.40
2023-03-04T04:00:37.505Z,40.90
2023-03-04T04:03:04.709Z,41.05
2023-03-04T04:05:32.024Z,41.75
2023-03-04T04:08:06.222Z,45.50
2023-03-04T04:10:34.688Z,44.28
2023-03-04T04:13:01.687Z,48.15
2023-03-04T04:15:28.862Z,51.53
2023-03-04T04:17:55.932Z,46.47
2023-03-04T04:20:25.736Z,52.63
2023-03-04T04:22:53.615Z,51.05
2023-03-04T04:25:20.769Z,53.75
2023-03-04T04:27:49.235Z,51.97
2023-03-04T04:30:16.153Z,49.72
2023-03-04T04:32:43.122Z,52.80
2023-03-04T04:35:10.370Z,47.58
2023-03-04T04:37:37.294Z,43.17
2023-03-04T04:40:04.795Z,44.95
2023-03-04T04:42:31.789Z,51.42
2023-03-04T04:45:00.190Z,44.77
2023-03-04T04:47:27.267Z,46.65
2023-03-04T04:49:54.289Z,46.33
2023-03-04T04:52:21.333Z,48.92
2023-03-04T04:54:48.420Z,46.22
2023-03-04T04:57:15.335Z,48.20
2023-03-04T04:59:42.305Z,49.65
2023-03-04T05:02:10.796Z,48.22
2023-03-04T05:04:37.738Z,48.03
2023-03-04T05:07:07.151Z,45.03
2023-03-04T05:09:34.058Z,47.13
2023-03-04T05:12:01.353Z,44.88
2023-03-04T05:14:28.373Z,40.13
2023-03-04T05:16:55.383Z,51.25
2023-03-04T05:19:23.904Z,49.50
2023-03-04T05:21:51.277Z,47.73
2023-03-04T05:24:18.286Z,55.92
2023-03-04T05:26:45.267Z,45.42
2023-03-04T05:29:12.178Z,49.58
2023-03-04T05:31:39.174Z,51.50
2023-03-04T05:34:06.213Z,44.90
2023-03-04T05:36:34.572Z,50.28
2023-03-04T05:39:02.001Z,52.47
2023-03-04T05:41:28.988Z,54.42
2023-03-04T05:43:56.695Z,54.90
2023-03-04T05:46:26.015Z,56.20
2023-03-04T05:48:53.240Z,55.00
2023-03-04T05:51:20.946Z,54.85
2023-03-04T05:53:49.595Z,52.97
2023-03-04T05:56:17.422Z,58.95
2023-03-04T05:58:45.163Z,58.27
2023-03-04T06:01:12.246Z,65.45
2023-03-04T06:03:39.363Z,69.15
2023-03-04T06:06:06.814Z,70.28
2023-03-04T06:08:33.806Z,69.90
2023-03-04T06:11:03.092Z,81.32
2023-03-04T06:13:30.069Z,68.72
2023-03-04T06:15:58.520Z,78.80
2023-03-04T06:18:26.188Z,80.00
2023-03-04T06:20:55.944Z,67.72
2023-03-04T06:23:22.993Z,68.77
2023-03-04T06:25:51.549Z,61.92
2023-03-04T06:28:20.099Z,70.28
2023-03-04T06:30:47.277Z,80.25
2023-03-04T06:33:14.497Z,83.13
2023-03-04T06:35:41.408Z,84.50
2023-03-04T06:38:09.001Z,94.05
2023-03-04T06:40:36.089Z,89.82
2023-03-04T06:43:03.555Z,93.20
2023-03-04T06:45:31.938Z,90.18
2023-03-04T06:47:59.077Z,92.90
2023-03-04T06:50:25.976Z,81.32
2023-03-04T06:52:53.196Z,90.35
2023-03-04T06:55:20.657Z,199.35
2023-03-04T06:57:48.618Z,104.97
2023-03-04T07:00:16.223Z,92.40
2023-03-04T07:02:44.589Z,92.85
2023-03-04T07:05:11.660Z,137.73
2023-03-04T07:07:38.704Z,138.10
2023-03-04T07:10:06.565Z,121.03
2023-03-04T07:12:33.502Z,99.23
2023-03-04T07:15:00.620Z,78.57
2023-03-04T07:17:27.640Z,79.72
2023-03-04T07:19:56.055Z,75.32
2023-03-04T07:22:22.972Z,59.90
2023-03-04T07:24:49.905Z,51.67
2023-03-04T07:27:16.878Z,63.50
2023-03-04T07:29:44.090Z,75.72
2023-03-04T07:32:11.376Z,72.65
2023-03-04T07:34:38.636Z,66.43
2023-03-04T07:37:06.997Z,55.20
2023-03-04T07:39:33.940Z,62.22
2023-03-04T07:42:00.941Z,54.33
2023-03-04T07:44:28.290Z,56.88
2023-03-04T07:46:55.261Z,50.75
2023-03-04T07:49:22.330Z,56.30
2023-03-04T07:51:49.356Z,77.93
2023-03-04T07:54:20.171Z,40.50
2023-03-04T07:56:47.205Z,36.08
2023-03-04T07:59:14.295Z,42.40
2023-03-04T08:01:41.318Z,40.10
2023-03-04T08:04:08.652Z,40.38
2023-03-04T08:06:35.845Z,38.63
2023-03-04T08:09:05.710Z,41.05
2023-03-04T08:11:35.246Z,38.00
2023-03-04T08:14:02.582Z,37.28
2023-03-04T08:16:30.840Z,31.98
2023-03-04T08:18:58.886Z,55.90
2023-03-04T08:21:26.478Z,39.83
2023-03-04T08:23:53.741Z,37.80
2023-03-04T08:26:22.206Z,66.40
2023-03-04T08:28:51.149Z,40.67
2023-03-04T08:31:18.947Z,36.55
2023-03-04T08:33:46.836Z,36.58
2023-03-04T08:36:14.013Z,33.88
2023-03-04T08:38:41.117Z,38.17
2023-03-04T08:41:08.396Z,34.63
2023-03-04T08:43:35.521Z,44.35
2023-03-04T08:46:04.796Z,35.72
2023-03-04T08:48:31.758Z,39.47
2023-03-04T08:50:59.078Z,40.15
2023-03-04T08:53:26.297Z,39.40
2023-03-04T08:55:53.616Z,40.65
2023-03-04T08:58:20.888Z,36.78
2023-03-04T09:00:48.696Z,34.47
2023-03-04T09:03:20.556Z,43.63
2023-03-04T09:05:48.411Z,42.38
2023-03-04T09:08:15.748Z,41.40
2023-03-04T09:10:42.707Z,38.42
2023-03-04T09:13:11.537Z,38.40
2023-03-04T09:15:38.929Z,38.15
2023-03-04T09:18:06.230Z,42.00
2023-03-04T09:20:34.777Z,42.05
2023-03-04T09:23:01.888Z,44.60
2023-03-04T09:25:29.317Z,60.15
2023-03-04T09:27:56.516Z,46.45
2023-03-04T09:30:23.434Z,39.50
2023-03-04T09:32:50.474Z,44.42
2023-03-04T09:35:17.908Z,36.45
2023-03-04T09:37:46.824Z,40.33
2023-03-04T09:40:17.699Z,42.97
2023-03-04T09:42:47.474Z,40.23
2023-03-04T09:45:16.504Z,39.70
2023-03-04T09:47:44.369Z,35.60
2023-03-04T09:50:12.730Z,42.58
2023-03-04T09:52:44.855Z,43.33
2023-03-04T09:55:17.900Z,35.13
2023-03-04T09:57:47.767Z,38.38
2023-03-04T10:00:20.308Z,39.50
2023-03-04T10:02:54.390Z,38.65
2023-03-04T10:05:24.376Z,38.97
2023-03-04T10:07:56.103Z,39.05
2023-03-04T10:10:26.500Z,38.50
2023-03-04T10:12:56.003Z,41.03
2023-03-04T10:15:26.520Z,39.03
2023-03-04T10:17:56.556Z,42.88
2023-03-04T10:20:24.856Z,36.33
2023-03-04T10:22:52.617Z,42.47
2023-03-04T10:25:20.634Z,39.45
2023-03-04T10:27:53.082Z,38.88
2023-03-04T10:30:36.132Z,40.30
2023-03-04T10:33:03.141Z,40.30
2023-03-04T10:35:33.941Z,37.92
2023-03-04T10:38:02.792Z,37.50
2023-03-04T10:40:30.017Z,40.63
2023-03-04T10:42:59.891Z,45.15
2023-03-04T10:45:30.898Z,38.17
2023-03-04T10:47:58.919Z,43.15
2023-03-04T10:50:26.764Z,39.25
2023-03-04T10:52:56.018Z,40.58
2023-03-04T10:55:24.304Z,37.40
2023-03-04T10:57:52.913Z,38.53
2023-03-04T11:00:24.395Z,37.53
2023-03-04T11:02:51.329Z,37.67
2023-03-04T11:05:19.080Z,38.50
2023-03-04T11:07:55.026Z,42.50
2023-03-04T11:10:24.749Z,29.03
2023-03-04T11:12:53.353Z,32.25
2023-03-04T11:15:21.221Z,32.47
2023-03-04T11:17:51.217Z,24.90
2023-03-04T11:20:25.292Z,27.67
2023-03-04T11:22:52.460Z,30.00
2023-03-04T11:25:23.862Z,31.67
2023-03-04T11:27:53.855Z,38.97
2023-03-04T11:30:27.106Z,39.15
2023-03-04T11:32:57.489Z,29.75
2023-03-04T11:35:25.779Z,33.13
2023-03-04T11:37:57.535Z,33.60
2023-03-04T11:40:28.969Z,31.75
2023-03-04T11:42:59.933Z,33.33
2023-03-04T11:45:33.820Z,32.17
2023-03-04T11:48:07.031Z,33.40
2023-03-04T11:50:39.306Z,32.00
2023-03-04T11:53:15.483Z,77.18
2023-03-04T11:55:46.631Z,29.70
2023-03-04T11:58:24.461Z,32.80
2023-03-04T12:00:54.110Z,48.47
2023-03-04T12:03:36.938Z,33.05
2023-03-04T12:06:07.142Z,123.97
2023-03-04T12:08:40.139Z,36.67
2023-03-04T12:11:09.862Z,34.88
2023-03-04T12:13:51.940Z,45.33
2023-03-04T12:16:29.344Z,30.98
2023-03-04T12:19:06.250Z,35.38
2023-03-04T12:21:50.530Z,36.05
2023-03-04T12:24:32.263Z,34.50
2023-03-04T12:27:01.819Z,155.33
2023-03-04T12:29:34.049Z,39.58
2023-03-04T12:32:03.906Z,25.17
2023-03-04T12:34:34.418Z,24.65
2023-03-04T12:37:11.847Z,27.98
2023-03-04T12:39:40.500Z,37.00
2023-03-04T12:42:17.206Z,24.48
2023-03-04T12:44:46.104Z,36.13
2023-03-04T12:47:21.729Z,45.30
2023-03-04T12:49:56.147Z,22.30
2023-03-04T12:52:29.365Z,31.40
2023-03-04T12:54:58.251Z,23.00
2023-03-04T12:57:26.128Z,25.40
2023-03-04T12:59:57.759Z,24.45
2023-03-04T13:02:32.243Z,28.67
2023-03-04T13:05:04.374Z,28.63
2023-03-04T13:07:38.136Z,27.33
2023-03-04T13:10:07.683Z,28.63
2023-03-04T13:12:46.562Z,28.83
2023-03-04T13:15:28.692Z,45.45
2023-03-04T13:17:56.681Z,31.50
2023-03-04T13:20:32.428Z,26.67
2023-03-04T13:23:00.036Z,29.83
2023-03-04T13:25:37.805Z,29.38
2023-03-04T13:28:18.570Z,27.85
2023-03-04T13:31:08.011Z,32.10
2023-03-04T13:33:46.204Z,27.95
2023-03-04T13:36:28.656Z,24.85
2023-03-04T13:39:00.703Z,26.95
2023-03-04T13:41:32.407Z,28.55
2023-03-04T13:44:00.188Z,24.47
2023-03-04T13:46:39.744Z,28.25
2023-03-04T13:49:08.787Z,28.27
2023-03-04T13:51:40.492Z,23.38
2023-03-04T13:54:12.914Z,25.58
2023-03-04T13:56:40.118Z,50.90
2023-03-04T13:59:26.165Z,24.15
2023-03-04T14:02:00.072Z,24.45
2023-03-04T14:04:28.980Z,23.70
2023-03-04T14:06:58.570Z,25.50
2023-03-04T14:09:27.200Z,25.40
2023-03-04T14:11:56.013Z,50.08
2023-03-04T14:14:24.328Z,31.55
2023-03-04T14:16:53.060Z,24.73
2023-03-04T14:19:23.251Z,24.83
2023-03-04T14:21:50.806Z,27.10
2023-03-04T14:24:19.989Z,35.60
2023-03-04T14:26:47.378Z,28.00
2023-03-04T14:29:21.528Z,21.92
2023-03-04T14:31:48.739Z,25.65
2023-03-04T14:34:19.419Z,25.10
2023-03-04T14:36:46.464Z,26.35
2023-03-04T14:39:15.613Z,26.73
2023-03-04T14:41:45.453Z,24.17
2023-03-04T14:44:15.238Z,28.33
2023-03-04T14:46:47.531Z,27.70
2023-03-04T14:49:18.320Z,29.42
2023-03-04T14:51:47.194Z,26.55
2023-03-04T14:54:25.878Z,24.75
2023-03-04T14:56:54.298Z,27.67
2023-03-04T14:59:27.920Z,34.90
2023-03-04T15:01:54.981Z,30.00
2023-03-04T15:04:22.639Z,29.27
2023-03-04T15:06:51.143Z,26.48
2023-03-04T15:09:19.398Z,27.27
2023-03-04T15:11:48.306Z,30.07
2023-03-04T15:14:39.304Z,29.63
2023-03-04T15:17:21.338Z,28.20
2023-03-04T15:19:58.091Z,26.90
2023-03-04T15:22:25.266Z,30.50
2023-03-04T15:24:52.316Z,30.57
2023-03-04T15:27:20.647Z,27.30
2023-03-04T15:29:48.012Z,28.55
2023-03-04T15:32:16.422Z,26.00
2023-03-04T15:34:43.914Z,30.70
2023-03-04T15:37:15.454Z,31.73
2023-03-04T15:39:42.465Z,43.70
2023-03-04T15:42:12.402Z,37.88
2023-03-04T15:44:39.391Z,41.85
2023-03-04T15:47:08.954Z,34.65
2023-03-04T15:49:37.386Z,30.30
2023-03-04T15:52:05.016Z,28.77
2023-03-04T15:54:32.007Z,29.00
2023-03-04T15:57:00.229Z,31.90
2023-03-04T15:59:27.775Z,42.50
2023-03-04T16:01:54.886Z,61.60
2023-03-04T16:04:23.274Z,73.97
2023-03-04T16:06:51.705Z,82.97
2023-03-04T16:09:19.810Z,55.83
2023-03-04T16:11:47.895Z,41.80
2023-03-04T16:14:15.597Z,34.67
2023-03-04T16:16:43.858Z,42.72
2023-03-04T16:19:10.988Z,37.08
2023-03-04T16:21:38.208Z,34.67
2023-03-04T16:24:15.798Z,48.72
2023-03-04T16:26:43.047Z,30.07
2023-03-04T16:29:10.404Z,30.40
2023-03-04T16:31:37.438Z,28.77
2023-03-04T16:34:04.417Z,41.78
2023-03-04T16:36:32.036Z,53.72
2023-03-04T16:39:02.561Z,58.30
2023-03-04T16:41:31.767Z,36.53
2023-03-04T16:43:59.311Z,26.38
2023-03-04T16:46:26.660Z,29.25
2023-03-04T16:48:53.922Z,29.17
2023-03-04T16:51:21.887Z,29.63
2023-03-04T16:53:49.499Z,25.13
2023-03-04T16:56:17.401Z,22.15
2023-03-04T16:58:46.162Z,31.65
2023-03-04T17:01:15.904Z,30.88
2023-03-04T17:03:43.209Z,28.83
2023-03-04T17:06:10.405Z,29.38
2023-03-04T17:08:37.552Z,28.80
2023-03-04T17:11:04.734Z,26.88
2023-03-04T17:13:31.664Z,25.35
2023-03-04T17:16:01.984Z,28.77
2023-03-04T17:18:29.128Z,26.10
2023-03-04T17:21:01.694Z,27.63
2023-03-04T17:23:29.726Z,24.35
2023-03-04T17:25:57.296Z,29.88
2023-03-04T17:28:24.505Z,27.87
2023-03-04T17:30:51.981Z,30.98
2023-03-04T17:33:20.555Z,32.65
2023-03-04T17:35:47.753Z,32.45
2023-03-04T17:38:15.384Z,34.63
2023-03-04T17:40:42.889Z,36.47
2023-03-04T17:43:14.365Z,37.53
2023-03-04T17:45:42.245Z,41.47
2023-03-04T17:48:15.034Z,46.90
2023-03-04T17:50:49.970Z,43.88
2023-03-04T17:53:17.662Z,37.57
2023-03-04T17:55:49.032Z,36.85
2023-03-04T17:58:16.105Z,32.28
2023-03-04T18:00:43.286Z,26.85
2023-03-04T18:03:12.271Z,35.30
2023-03-04T18:05:39.521Z,53.90
2023-03-04T18:08:08.695Z,45.22
2023-03-04T18:10:35.673Z,26.80
2023-03-04T18:13:03.186Z,25.25
2023-03-04T18:15:30.494Z,22.70
2023-03-04T18:17:57.647Z,24.67
2023-03-04T18:20:24.950Z,22.40
2023-03-04T18:22:52.189Z,22.13
2023-03-04T18:25:21.521Z,22.63
2023-03-04T18:27:48.648Z,27.80
2023-03-04T18:30:21.043Z,24.63
2023-03-04T18:32:52.319Z,23.08
2023-03-04T18:35:20.061Z,23.20
2023-03-04T18:37:47.241Z,25.23
2023-03-04T18:40:15.127Z,23.83
2023-03-04T18:42:46.665Z,21.97
2023-03-04T18:45:14.038Z,24.40
2023-03-04T18:47:42.152Z,26.02
2023-03-04T18:50:10.355Z,25.25
2023-03-04T18:52:37.613Z,23.92
2023-03-04T18:55:04.935Z,25.90
2023-03-04T18:57:32.212Z,24.98
2023-03-04T19:00:02.675Z,24.77
2023-03-04T19:02:32.728Z,27.02
2023-03-04T19:05:02.397Z,30.95
2023-03-04T19:07:29.772Z,26.53
2023-03-04T19:09:57.126Z,24.77
2023-03-04T19:12:24.496Z,31.05
2023-03-04T19:14:51.756Z,34.13
2023-03-04T19:17:20.170Z,28.30
2023-03-04T19:19:47.416Z,25.97
2023-03-04T19:22:14.780Z,29.73
2023-03-04T19:24:42.405Z,28.77
2023-03-04T19:27:09.706Z,24.10
2023-03-04T19:29:37.090Z,19.58
2023-03-04T19:32:04.543Z,28.83
2023-03-04T19:34:33.368Z,29.10
2023-03-04T19:37:00.645Z,25.17
2023-03-04T19:39:27.871Z,24.80
2023-03-04T19:41:55.011Z,22.30
2023-03-04T19:44:22.285Z,25.17
2023-03-04T19:46:49.489Z,20.23
2023-03-04T19:49:16.826Z,25.05
2023-03-04T19:51:45.364Z,22.52
2023-03-04T19:54:12.692Z,20.30
2023-03-04T19:56:39.877Z,22.63
2023-03-04T19:59:07.352Z,20.65
2023-03-04T20:01:35.551Z,27.38
2023-03-04T20:04:04.751Z,17.08
2023-03-04T20:06:31.999Z,18.70
2023-03-04T20:09:01.235Z,19.13
2023-03-04T20:11:29.001Z,14.68
2023-03-04T20:13:58.503Z,21.83
2023-03-04T20:16:25.970Z,15.80
2023-03-04T20:18:53.821Z,18.98
2023-03-04T20:21:21.122Z,22.33
2023-03-04T20:23:48.394Z,20.17
2023-03-04T20:26:18.454Z,14.43
2023-03-04T20:28:45.768Z,17.67
2023-03-04T20:31:15.613Z,15.25
2023-03-04T20:33:43.788Z,12.27
2023-03-04T20:36:11.039Z,10.88
2023-03-04T20:38:38.336Z,17.45
2023-03-04T20:41:05.904Z,10.32
2023-03-04T20:43:34.473Z,16.75
2023-03-04T20:46:16.554Z,20.55
2023-03-04T20:48:43.777Z,13.80
2023-03-04T20:51:10.875Z,14.77
2023-03-04T20:53:38.091Z,17.63
2023-03-04T20:56:05.255Z,15.48
2023-03-04T20:58:32.121Z,15.70
2023-03-04T21:01:00.857Z,12.48
2023-03-04T21:03:29.176Z,17.55
2023-03-04T21:05:56.278Z,11.35
2023-03-04T21:08:23.454Z,15.75
2023-03-04T21:10:50.487Z,21.08
2023-03-04T21:13:20.273Z,19.08
2023-03-04T21:15:47.602Z,16.83
2023-03-04T21:18:17.733Z,18.02
2023-03-04T21:20:45.492Z,18.00
2023-03-04T21:23:12.887Z,12.37
2023-03-04T21:25:41.527Z,14.25
2023-03-04T21:28:10.751Z,18.42
2023-03-04T21:30:37.988Z,22.38
2023-03-04T21:33:05.573Z,13.20
2023-03-04T21:35:34.625Z,22.98
2023-03-04T21:38:01.637Z,20.77
2023-03-04T21:40:28.810Z,22.48
2023-03-04T21:42:55.855Z,13.55
2023-03-04T21:45:22.817Z,16.17
2023-03-04T21:47:50.119Z,18.23
2023-03-04T21:50:17.669Z,17.23
2023-03-04T21:52:46.321Z,18.05
2023-03-04T21:55:13.304Z,17.95
2023-03-04T21:57:40.451Z,18.88
2023-03-04T22:00:08.507Z,17.27
2023-03-04T22:02:35.434Z,19.88
2023-03-04T22:05:02.602Z,18.13
2023-03-04T22:07:29.605Z,16.92
2023-03-04T22:09:59.578Z,17.30
2023-03-04T22:12:26.464Z,19.60
2023-03-04T22:14:53.575Z,16.60
2023-03-04T22:17:20.939Z,17.10
2023-03-04T22:19:47.837Z,12.60
2023-03-04T22:22:18.183Z,15.68
2023-03-04T22:24:45.492Z,15.60
2023-03-04T22:27:13.931Z,15.75
2023-03-04T22:29:40.898Z,17.70
2023-03-04T22:32:08.064Z,18.05
2023-03-04T22:34:35.107Z,14.90
2023-03-04T22:37:02.043Z,10.30
2023-03-04T22:39:29.015Z,16.20
2023-03-04T22:41:55.955Z,19.50
2023-03-04T22:44:24.349Z,17.45
2023-03-04T22:46:51.403Z,14.82
2023-03-04T22:49:18.396Z,11.30
2023-03-04T22:51:45.835Z,17.23
2023-03-04T22:54:13.767Z,16.05
2023-03-04T22:56:40.794Z,14.15
2023-03-04T22:59:07.887Z,17.13
2023-03-04T23:01:36.798Z,14.25
2023-03-04T23:04:04.027Z,17.52
2023-03-04T23:06:31.835Z,15.52
2023-03-04T23:08:59.380Z,16.90
2023-03-04T23:11:27.854Z,20.88
2023-03-04T23:13:55.001Z,95.37
2023-03-04T23:16:22.440Z,55.53
2023-03-04T23:18:51.129Z,36.25
2023-03-04T23:21:19.188Z,18.92
2023-03-04T23:23:46.436Z,15.50
2023-03-04T23:26:13.868Z,16.38
2023-03-04T23:28:41.179Z,14.85
2023-03-04T23:31:08.522Z,18.75
2023-03-04T23:33:35.792Z,16.73
2023-03-04T23:36:04.336Z,19.65
2023-03-04T23:38:31.942Z,20.77
2023-03-04T23:40:59.242Z,18.23
2023-03-04T23:43:27.291Z,16.20
2023-03-04T23:45:54.261Z,20.15
2023-03-04T23:48:21.926Z,18.03
2023-03-04T23:50:50.798Z,16.07
2023-03-04T23:53:19.760Z,16.33
2023-03-04T23:55:47.382Z,17.95
2023-03-04T23:58:14.282Z,20.80
